sensor_id;sensor_type;location;lat;lon;timestamp;noise_LAeq;noise_LA_min;noise_LA_max;noise_LA01;noise_LA95
69619;Laerm;57653;51.434;5.984;2023-05-10T00:00:04;37.10;35.19;44.20;;
69619;Laerm;57653;51.434;5.984;2023-05-10T00:00:16;39.62;35.29;49.83;;
69619;Laerm;57653;51.434;5.984;2023-05-10T00:00:26;37.06;35.60;43.95;;
69619;Laerm;57653;51.434;5.984;2023-05-10T00:00:36;37.12;35.27;44.78;;
69619;Laerm;57653;51.434;5.984;2023-05-10T00:00:47;37.17;35.36;44.01;;
69619;Laerm;57653;51.434;5.984;2023-05-10T00:00:57;37.47;35.42;51.13;;
69619;Laerm;57653;51.434;5.984;2023-05-10T00:01:07;37.28;35.41;47.39;;
69619;Laerm;57653;51.434;5.984;2023-05-10T00:01:18;38.69;35.26;55.96;;
69619;Laerm;57653;51.434;5.984;2023-05-10T00:01:28;37.16;35.68;43.51;;
69619;Laerm;57653;51.434;5.984;2023-05-10T00:01:38;37.24;35.54;50.47;;
69619;Laerm;57653;51.434;5.984;2023-05-10T00:01:48;37.41;35.90;44.18;;
69619;Laerm;57653;51.434;5.984;2023-05-10T00:01:59;37.43;35.70;47.81;;
69619;Laerm;57653;51.434;5.984;2023-05-10T00:02:09;37.29;36.03;42.67;;
69619;Laerm;57653;51.434;5.984;2023-05-10T00:02:19;37.43;35.73;44.35;;
69619;Laerm;57653;51.434;5.984;2023-05-10T00:02:30;37.52;35.97;41.04;;
69619;Laerm;57653;51.434;5.984;2023-05-10T00:02:40;38.89;36.61;50.70;;
69619;Laerm;57653;51.434;5.984;2023-05-10T00:02:50;41.47;37.80;56.40;;
69619;Laerm;57653;51.434;5.984;2023-05-10T00:03:00;58.05;44.53;63.72;;
69619;Laerm;57653;51.434;5.984;2023-05-10T00:03:11;63.57;61.30;66.56;;
69619;Laerm;57653;51.434;5.984;2023-05-10T00:03:21;64.38;61.52;67.74;;
69619;Laerm;57653;51.434;5.984;2023-05-10T00:03:31;70.23;62.25;73.89;;
69619;Laerm;57653;51.434;5.984;2023-05-10T00:03:42;53.40;38.00;64.06;;
69619;Laerm;57653;51.434;5.984;2023-05-10T00:03:52;37.61;35.80;43.52;;
69619;Laerm;57653;51.434;5.984;2023-05-10T00:04:02;37.35;35.62;48.74;;
69619;Laerm;57653;51.434;5.984;2023-05-10T00:04:13;37.05;35.52;47.20;;
69619;Laerm;57653;51.434;5.984;2023-05-10T00:04:23;36.48;34.81;40.09;;
69619;Laerm;57653;51.434;5.984;2023-05-10T00:04:37;36.41;34.67;43.61;;
69619;Laerm;57653;51.434;5.984;2023-05-10T00:04:47;36.55;35.12;46.32;;
69619;Laerm;57653;51.434;5.984;2023-05-10T00:04:58;36.51;35.25;41.71;;
69619;Laerm;57653;51.434;5.984;2023-05-10T00:05:08;36.42;35.01;42.74;;
69619;Laerm;57653;51.434;5.984;2023-05-10T00:05:19;36.31;34.92;41.17;;
69619;Laerm;57653;51.434;5.984;2023-05-10T00:05:29;36.40;34.94;45.11;;
69619;Laerm;57653;51.434;5.984;2023-05-10T00:05:39;38.04;34.95;57.80;;
69619;Laerm;57653;51.434;5.984;2023-05-10T00:05:50;36.35;34.81;42.31;;
69619;Laerm;57653;51.434;5.984;2023-05-10T00:06:00;36.37;34.92;43.03;;
69619;Laerm;57653;51.434;5.984;2023-05-10T00:06:10;36.15;34.93;40.12;;
69619;Laerm;57653;51.434;5.984;2023-05-10T00:06:21;36.16;34.98;43.51;;
69619;Laerm;57653;51.434;5.984;2023-05-10T00:06:31;36.12;34.70;41.87;;
69619;Laerm;57653;51.434;5.984;2023-05-10T00:06:41;36.08;34.27;40.24;;
69619;Laerm;57653;51.434;5.984;2023-05-10T00:06:52;36.01;34.92;40.38;;
69619;Laerm;57653;51.434;5.984;2023-05-10T00:07:02;35.83;34.68;38.88;;
69619;Laerm;57653;51.434;5.984;2023-05-10T00:07:12;36.05;34.78;45.62;;
69619;Laerm;57653;51.434;5.984;2023-05-10T00:07:23;35.99;34.63;41.90;;
69619;Laerm;57653;51.434;5.984;2023-05-10T00:07:33;36.09;34.97;42.91;;
69619;Laerm;57653;51.434;5.984;2023-05-10T00:07:43;35.96;34.92;39.96;;
69619;Laerm;57653;51.434;5.984;2023-05-10T00:07:54;35.95;34.76;39.92;;
69619;Laerm;57653;51.434;5.984;2023-05-10T00:08:05;48.01;35.20;59.39;;
69619;Laerm;57653;51.434;5.984;2023-05-10T00:08:15;62.88;57.94;65.11;;
69619;Laerm;57653;51.434;5.984;2023-05-10T00:08:25;63.34;60.98;65.92;;
69619;Laerm;57653;51.434;5.984;2023-05-10T00:08:35;61.96;56.64;64.58;;
69619;Laerm;57653;51.434;5.984;2023-05-10T00:08:46;52.61;44.45;59.75;;
69619;Laerm;57653;51.434;5.984;2023-05-10T00:08:56;43.60;40.02;47.57;;
69619;Laerm;57653;51.434;5.984;2023-05-10T00:09:07;40.57;37.93;45.04;;
69619;Laerm;57653;51.434;5.984;2023-05-10T00:09:17;38.29;35.99;46.08;;
69619;Laerm;57653;51.434;5.984;2023-05-10T00:09:27;37.42;36.03;44.86;;
69619;Laerm;57653;51.434;5.984;2023-05-10T00:09:37;37.17;35.67;41.11;;
69619;Laerm;57653;51.434;5.984;2023-05-10T00:09:48;36.54;34.98;41.08;;
69619;Laerm;57653;51.434;5.984;2023-05-10T00:09:58;36.43;34.82;39.44;;
69619;Laerm;57653;51.434;5.984;2023-05-10T00:10:08;35.93;34.63;40.35;;
69619;Laerm;57653;51.434;5.984;2023-05-10T00:10:18;35.84;34.66;39.85;;
69619;Laerm;57653;51.434;5.984;2023-05-10T00:10:29;35.84;34.61;39.60;;
69619;Laerm;57653;51.434;5.984;2023-05-10T00:10:39;35.78;34.83;41.47;;
69619;Laerm;57653;51.434;5.984;2023-05-10T00:10:51;35.89;34.72;39.52;;
69619;Laerm;57653;51.434;5.984;2023-05-10T00:11:01;35.88;34.51;43.23;;
69619;Laerm;57653;51.434;5.984;2023-05-10T00:11:12;35.64;34.61;38.88;;
69619;Laerm;57653;51.434;5.984;2023-05-10T00:11:22;35.57;34.68;38.14;;
69619;Laerm;57653;51.434;5.984;2023-05-10T00:11:32;35.82;34.60;41.73;;
69619;Laerm;57653;51.434;5.984;2023-05-10T00:11:42;35.73;34.61;39.45;;
69619;Laerm;57653;51.434;5.984;2023-05-10T00:11:53;35.72;34.34;41.04;;
69619;Laerm;57653;51.434;5.984;2023-05-10T00:12:03;35.61;34.42;40.18;;
69619;Laerm;57653;51.434;5.984;2023-05-10T00:12:13;35.79;34.64;43.11;;
69619;Laerm;57653;51.434;5.984;2023-05-10T00:12:24;35.82;34.70;39.62;;
69619;Laerm;57653;51.434;5.984;2023-05-10T00:12:34;35.72;34.43;39.63;;
69619;Laerm;57653;51.434;5.984;2023-05-10T00:12:44;35.82;34.45;42.08;;
69619;Laerm;57653;51.434;5.984;2023-05-10T00:12:54;35.77;34.68;41.83;;
69619;Laerm;57653;51.434;5.984;2023-05-10T00:13:05;36.00;34.43;41.00;;
69619;Laerm;57653;51.434;5.984;2023-05-10T00:13:15;35.79;34.79;39.20;;
69619;Laerm;57653;51.434;5.984;2023-05-10T00:13:25;35.77;34.69;39.40;;
69619;Laerm;57653;51.434;5.984;2023-05-10T00:13:35;36.19;34.86;40.37;;
69619;Laerm;57653;51.434;5.984;2023-05-10T00:13:46;36.17;35.07;42.18;;
69619;Laerm;57653;51.434;5.984;2023-05-10T00:13:56;36.62;35.32;39.65;;
69619;Laerm;57653;51.434;5.984;2023-05-10T00:14:06;38.10;36.26;41.86;;
69619;Laerm;57653;51.434;5.984;2023-05-10T00:14:17;39.39;37.68;41.56;;
69619;Laerm;57653;51.434;5.984;2023-05-10T00:14:27;51.90;39.29;59.69;;
69619;Laerm;57653;51.434;5.984;2023-05-10T00:14:37;65.67;57.04;69.44;;
69619;Laerm;57653;51.434;5.984;2023-05-10T00:14:47;66.48;62.64;69.85;;
69619;Laerm;57653;51.434;5.984;2023-05-10T00:14:58;61.44;56.86;64.37;;
69619;Laerm;57653;51.434;5.984;2023-05-10T00:15:08;50.18;35.29;58.06;;
69619;Laerm;57653;51.434;5.984;2023-05-10T00:15:18;36.12;34.77;46.27;;
69619;Laerm;57653;51.434;5.984;2023-05-10T00:15:29;35.64;34.55;38.86;;
69619;Laerm;57653;51.434;5.984;2023-05-10T00:15:40;35.59;34.48;41.24;;
69619;Laerm;57653;51.434;5.984;2023-05-10T00:15:50;35.58;34.43;39.88;;
69619;Laerm;57653;51.434;5.984;2023-05-10T00:16:01;35.63;34.64;41.67;;
69619;Laerm;57653;51.434;5.984;2023-05-10T00:16:11;35.97;34.42;49.19;;
69619;Laerm;57653;51.434;5.984;2023-05-10T00:16:23;35.65;34.62;37.53;;
69619;Laerm;57653;51.434;5.984;2023-05-10T00:16:33;35.76;34.59;40.07;;
69619;Laerm;57653;51.434;5.984;2023-05-10T00:16:43;35.65;34.62;39.55;;
69619;Laerm;57653;51.434;5.984;2023-05-10T00:16:53;35.56;34.46;39.81;;
69619;Laerm;57653;51.434;5.984;2023-05-10T00:17:04;35.69;34.58;41.35;;
69619;Laerm;57653;51.434;5.984;2023-05-10T00:17:14;35.93;34.56;48.87;;
69619;Laerm;57653;51.434;5.984;2023-05-10T00:17:24;35.96;34.78;43.89;;
69619;Laerm;57653;51.434;5.984;2023-05-10T00:17:35;36.19;35.19;40.06;;
69619;Laerm;57653;51.434;5.984;2023-05-10T00:17:45;37.26;36.00;39.98;;
69619;Laerm;57653;51.434;5.984;2023-05-10T00:17:55;38.05;36.29;40.31;;
69619;Laerm;57653;51.434;5.984;2023-05-10T00:18:06;39.31;37.12;41.16;;
69619;Laerm;57653;51.434;5.984;2023-05-10T00:18:16;54.22;40.11;62.25;;
69619;Laerm;57653;51.434;5.984;2023-05-10T00:18:26;63.99;60.00;67.28;;
69619;Laerm;57653;51.434;5.984;2023-05-10T00:18:36;61.28;59.00;64.33;;
69619;Laerm;57653;51.434;5.984;2023-05-10T00:18:47;56.04;38.92;62.40;;
69619;Laerm;57653;51.434;5.984;2023-05-10T00:18:57;36.95;34.93;41.98;;
69619;Laerm;57653;51.434;5.984;2023-05-10T00:19:07;35.70;34.73;40.82;;
69619;Laerm;57653;51.434;5.984;2023-05-10T00:19:18;35.63;34.48;40.45;;
69619;Laerm;57653;51.434;5.984;2023-05-10T00:19:28;35.76;34.76;40.29;;
69619;Laerm;57653;51.434;5.984;2023-05-10T00:19:38;35.98;34.70;41.31;;
69619;Laerm;57653;51.434;5.984;2023-05-10T00:19:48;35.75;34.61;39.59;;
69619;Laerm;57653;51.434;5.984;2023-05-10T00:19:59;35.68;34.82;38.37;;
69619;Laerm;57653;51.434;5.984;2023-05-10T00:20:09;35.64;34.54;38.75;;
69619;Laerm;57653;51.434;5.984;2023-05-10T00:20:20;35.90;34.80;39.49;;
69619;Laerm;57653;51.434;5.984;2023-05-10T00:20:30;36.32;35.23;40.63;;
69619;Laerm;57653;51.434;5.984;2023-05-10T00:20:40;36.40;35.01;40.35;;
69619;Laerm;57653;51.434;5.984;2023-05-10T00:20:51;36.11;34.86;40.88;;
69619;Laerm;57653;51.434;5.984;2023-05-10T00:21:01;36.36;34.93;38.66;;
69619;Laerm;57653;51.434;5.984;2023-05-10T00:21:11;37.92;35.41;40.07;;
69619;Laerm;57653;51.434;5.984;2023-05-10T00:21:21;40.36;38.48;42.72;;
69619;Laerm;57653;51.434;5.984;2023-05-10T00:21:32;46.99;39.79;54.24;;
69619;Laerm;57653;51.434;5.984;2023-05-10T00:21:43;68.73;52.22;73.45;;
69619;Laerm;57653;51.434;5.984;2023-05-10T00:21:53;71.35;67.24;74.64;;
69619;Laerm;57653;51.434;5.984;2023-05-10T00:22:04;64.49;41.85;72.33;;
69619;Laerm;57653;51.434;5.984;2023-05-10T00:22:14;38.41;35.24;42.44;;
69619;Laerm;57653;51.434;5.984;2023-05-10T00:22:24;36.05;34.86;41.04;;
69619;Laerm;57653;51.434;5.984;2023-05-10T00:22:35;35.91;34.48;40.19;;
69619;Laerm;57653;51.434;5.984;2023-05-10T00:22:45;35.48;34.65;39.53;;
69619;Laerm;57653;51.434;5.984;2023-05-10T00:22:55;35.97;34.50;43.52;;
69619;Laerm;57653;51.434;5.984;2023-05-10T00:23:05;35.53;34.44;38.57;;
69619;Laerm;57653;51.434;5.984;2023-05-10T00:23:16;35.67;34.50;39.88;;
69619;Laerm;57653;51.434;5.984;2023-05-10T00:23:26;35.70;34.36;45.62;;
69619;Laerm;57653;51.434;5.984;2023-05-10T00:23:36;35.54;34.67;39.03;;
69619;Laerm;57653;51.434;5.984;2023-05-10T00:23:47;35.46;34.55;40.73;;
69619;Laerm;57653;51.434;5.984;2023-05-10T00:23:57;35.54;34.64;38.61;;
69619;Laerm;57653;51.434;5.984;2023-05-10T00:24:07;35.56;34.54;40.58;;
69619;Laerm;57653;51.434;5.984;2023-05-10T00:24:18;35.47;34.48;39.35;;
69619;Laerm;57653;51.434;5.984;2023-05-10T00:24:28;35.65;34.32;41.59;;
69619;Laerm;57653;51.434;5.984;2023-05-10T00:24:38;35.53;34.47;40.52;;
69619;Laerm;57653;51.434;5.984;2023-05-10T00:24:48;35.74;34.69;38.86;;
69619;Laerm;57653;51.434;5.984;2023-05-10T00:24:59;35.68;34.60;39.85;;
69619;Laerm;57653;51.434;5.984;2023-05-10T00:25:09;35.94;34.70;40.77;;
69619;Laerm;57653;51.434;5.984;2023-05-10T00:25:20;59.46;36.30;65.60;;
69619;Laerm;57653;51.434;5.984;2023-05-10T00:25:31;62.11;60.28;64.71;;
69619;Laerm;57653;51.434;5.984;2023-05-10T00:25:41;60.36;52.51;64.01;;
69619;Laerm;57653;51.434;5.984;2023-05-10T00:25:52;47.63;41.33;52.76;;
69619;Laerm;57653;51.434;5.984;2023-05-10T00:26:02;42.97;39.71;47.32;;
69619;Laerm;57653;51.434;5.984;2023-05-10T00:26:12;39.67;37.24;43.74;;
69619;Laerm;57653;51.434;5.984;2023-05-10T00:26:23;38.08;36.48;41.29;;
69619;Laerm;57653;51.434;5.984;2023-05-10T00:26:33;37.17;35.43;40.76;;
69619;Laerm;57653;51.434;5.984;2023-05-10T00:26:43;35.95;34.79;41.54;;
69619;Laerm;57653;51.434;5.984;2023-05-10T00:26:53;36.43;35.19;40.77;;
69619;Laerm;57653;51.434;5.984;2023-05-10T00:27:04;35.84;34.75;42.55;;
69619;Laerm;57653;51.434;5.984;2023-05-10T00:27:14;35.73;34.69;40.17;;
69619;Laerm;57653;51.434;5.984;2023-05-10T00:27:24;35.77;34.65;39.34;;
69619;Laerm;57653;51.434;5.984;2023-05-10T00:27:35;35.61;34.68;37.28;;
69619;Laerm;57653;51.434;5.984;2023-05-10T00:27:45;35.67;34.43;40.38;;
69619;Laerm;57653;51.434;5.984;2023-05-10T00:27:55;35.73;34.73;39.38;;
69619;Laerm;57653;51.434;5.984;2023-05-10T00:28:07;35.52;34.47;41.67;;
69619;Laerm;57653;51.434;5.984;2023-05-10T00:28:17;35.54;34.63;39.21;;
69619;Laerm;57653;51.434;5.984;2023-05-10T00:28:27;35.50;34.66;38.45;;
69619;Laerm;57653;51.434;5.984;2023-05-10T00:28:38;35.64;34.68;44.46;;
69619;Laerm;57653;51.434;5.984;2023-05-10T00:28:48;35.53;34.36;40.11;;
69619;Laerm;57653;51.434;5.984;2023-05-10T00:28:59;35.45;34.52;37.87;;
69619;Laerm;57653;51.434;5.984;2023-05-10T00:29:09;35.48;34.57;39.30;;
69619;Laerm;57653;51.434;5.984;2023-05-10T00:29:20;35.44;34.43;40.36;;
69619;Laerm;57653;51.434;5.984;2023-05-10T00:29:30;35.47;34.51;40.31;;
69619;Laerm;57653;51.434;5.984;2023-05-10T00:29:41;35.63;34.57;41.15;;
69619;Laerm;57653;51.434;5.984;2023-05-10T00:29:52;35.56;34.58;39.36;;
69619;Laerm;57653;51.434;5.984;2023-05-10T00:30:02;35.84;34.60;40.96;;
69619;Laerm;57653;51.434;5.984;2023-05-10T00:30:12;35.72;34.75;40.29;;
69619;Laerm;57653;51.434;5.984;2023-05-10T00:30:22;35.81;34.82;40.03;;
69619;Laerm;57653;51.434;5.984;2023-05-10T00:30:33;35.79;34.83;40.53;;
69619;Laerm;57653;51.434;5.984;2023-05-10T00:30:43;35.99;34.80;41.36;;
69619;Laerm;57653;51.434;5.984;2023-05-10T00:30:53;36.27;35.12;40.33;;
69619;Laerm;57653;51.434;5.984;2023-05-10T00:31:04;36.94;35.50;40.91;;
69619;Laerm;57653;51.434;5.984;2023-05-10T00:31:14;38.79;36.46;45.15;;
69619;Laerm;57653;51.434;5.984;2023-05-10T00:31:24;40.25;38.15;42.02;;
69619;Laerm;57653;51.434;5.984;2023-05-10T00:31:34;50.64;39.53;59.45;;
69619;Laerm;57653;51.434;5.984;2023-05-10T00:31:45;65.92;58.23;68.29;;
69619;Laerm;57653;51.434;5.984;2023-05-10T00:31:55;68.84;65.21;71.33;;
69619;Laerm;57653;51.434;5.984;2023-05-10T00:32:06;68.67;60.17;72.37;;
69619;Laerm;57653;51.434;5.984;2023-05-10T00:32:16;51.64;37.29;60.32;;
69619;Laerm;57653;51.434;5.984;2023-05-10T00:32:26;36.20;34.68;39.99;;
69619;Laerm;57653;51.434;5.984;2023-05-10T00:32:37;35.46;34.50;37.74;;
69619;Laerm;57653;51.434;5.984;2023-05-10T00:32:47;35.48;34.26;40.20;;
69619;Laerm;57653;51.434;5.984;2023-05-10T00:32:59;35.50;34.32;41.45;;
69619;Laerm;57653;51.434;5.984;2023-05-10T00:33:10;35.48;34.49;42.62;;
69619;Laerm;57653;51.434;5.984;2023-05-10T00:33:21;35.56;34.45;40.38;;
69619;Laerm;57653;51.434;5.984;2023-05-10T00:33:31;35.46;34.34;39.13;;
69619;Laerm;57653;51.434;5.984;2023-05-10T00:33:42;35.44;34.27;39.86;;
69619;Laerm;57653;51.434;5.984;2023-05-10T00:33:52;35.44;34.14;41.52;;
69619;Laerm;57653;51.434;5.984;2023-05-10T00:34:02;35.48;34.55;39.70;;
69619;Laerm;57653;51.434;5.984;2023-05-10T00:34:13;35.60;34.45;41.09;;
69619;Laerm;57653;51.434;5.984;2023-05-10T00:34:23;35.57;34.32;41.14;;
69619;Laerm;57653;51.434;5.984;2023-05-10T00:34:34;35.66;34.50;41.08;;
69619;Laerm;57653;51.434;5.984;2023-05-10T00:34:44;36.17;34.47;50.61;;
69619;Laerm;57653;51.434;5.984;2023-05-10T00:34:55;35.56;34.56;39.90;;
69619;Laerm;57653;51.434;5.984;2023-05-10T00:35:05;35.53;34.44;40.48;;
69619;Laerm;57653;51.434;5.984;2023-05-10T00:35:15;35.53;34.67;40.83;;
69619;Laerm;57653;51.434;5.984;2023-05-10T00:35:26;35.56;34.55;41.29;;
69619;Laerm;57653;51.434;5.984;2023-05-10T00:35:36;35.51;34.60;37.37;;
69619;Laerm;57653;51.434;5.984;2023-05-10T00:35:47;35.62;34.71;40.50;;
69619;Laerm;57653;51.434;5.984;2023-05-10T00:35:58;35.54;34.63;39.46;;
69619;Laerm;57653;51.434;5.984;2023-05-10T00:36:08;35.51;34.58;39.65;;
69619;Laerm;57653;51.434;5.984;2023-05-10T00:36:18;35.43;34.65;36.99;;
69619;Laerm;57653;51.434;5.984;2023-05-10T00:36:29;35.88;34.39;41.76;;
69619;Laerm;57653;51.434;5.984;2023-05-10T00:36:39;36.31;34.46;51.21;;
69619;Laerm;57653;51.434;5.984;2023-05-10T00:36:49;35.65;34.65;41.57;;
69619;Laerm;57653;51.434;5.984;2023-05-10T00:37:00;36.30;34.82;42.68;;
69619;Laerm;57653;51.434;5.984;2023-05-10T00:37:10;36.60;34.63;42.44;;
69619;Laerm;57653;51.434;5.984;2023-05-10T00:37:20;35.68;34.63;39.20;;
69619;Laerm;57653;51.434;5.984;2023-05-10T00:37:30;36.26;34.45;42.11;;
69619;Laerm;57653;51.434;5.984;2023-05-10T00:37:41;35.89;34.70;46.30;;
69619;Laerm;57653;51.434;5.984;2023-05-10T00:37:51;37.69;34.76;46.01;;
69619;Laerm;57653;51.434;5.984;2023-05-10T00:38:01;36.09;35.03;45.38;;
69619;Laerm;57653;51.434;5.984;2023-05-10T00:38:11;36.53;34.87;41.76;;
69619;Laerm;57653;51.434;5.984;2023-05-10T00:38:22;35.55;34.57;39.59;;
69619;Laerm;57653;51.434;5.984;2023-05-10T00:38:32;36.85;34.65;43.88;;
69619;Laerm;57653;51.434;5.984;2023-05-10T00:38:42;35.62;34.69;39.00;;
69619;Laerm;57653;51.434;5.984;2023-05-10T00:38:53;36.01;34.64;40.48;;
69619;Laerm;57653;51.434;5.984;2023-05-10T00:39:03;36.09;34.78;40.09;;
69619;Laerm;57653;51.434;5.984;2023-05-10T00:39:13;35.75;34.62;39.88;;
69619;Laerm;57653;51.434;5.984;2023-05-10T00:39:23;35.77;34.72;43.02;;
69619;Laerm;57653;51.434;5.984;2023-05-10T00:39:34;35.66;34.73;37.36;;
69619;Laerm;57653;51.434;5.984;2023-05-10T00:39:44;35.72;34.48;40.69;;
69619;Laerm;57653;51.434;5.984;2023-05-10T00:39:54;35.60;34.46;36.93;;
69619;Laerm;57653;51.434;5.984;2023-05-10T00:40:05;35.76;34.62;41.85;;
69619;Laerm;57653;51.434;5.984;2023-05-10T00:40:15;36.39;34.68;52.29;;
69619;Laerm;57653;51.434;5.984;2023-05-10T00:40:26;35.69;34.60;40.89;;
69619;Laerm;57653;51.434;5.984;2023-05-10T00:40:36;35.59;34.42;38.39;;
69619;Laerm;57653;51.434;5.984;2023-05-10T00:40:49;35.52;34.75;37.30;;
69619;Laerm;57653;51.434;5.984;2023-05-10T00:40:59;35.63;34.47;40.19;;
69619;Laerm;57653;51.434;5.984;2023-05-10T00:41:10;35.54;34.45;38.67;;
69619;Laerm;57653;51.434;5.984;2023-05-10T00:41:20;35.50;34.65;37.42;;
69619;Laerm;57653;51.434;5.984;2023-05-10T00:41:31;35.53;34.38;37.26;;
69619;Laerm;57653;51.434;5.984;2023-05-10T00:41:42;35.61;34.48;39.71;;
69619;Laerm;57653;51.434;5.984;2023-05-10T00:41:52;35.64;34.50;39.19;;
69619;Laerm;57653;51.434;5.984;2023-05-10T00:42:03;35.79;34.51;42.04;;
69619;Laerm;57653;51.434;5.984;2023-05-10T00:42:14;35.61;34.61;42.08;;
69619;Laerm;57653;51.434;5.984;2023-05-10T00:42:24;35.51;34.62;38.07;;
69619;Laerm;57653;51.434;5.984;2023-05-10T00:42:35;35.52;34.55;37.32;;
69619;Laerm;57653;51.434;5.984;2023-05-10T00:42:45;35.59;34.55;39.59;;
69619;Laerm;57653;51.434;5.984;2023-05-10T00:42:55;35.72;34.76;44.70;;
69619;Laerm;57653;51.434;5.984;2023-05-10T00:43:06;35.59;34.44;40.63;;
69619;Laerm;57653;51.434;5.984;2023-05-10T00:43:16;35.47;34.41;37.57;;
69619;Laerm;57653;51.434;5.984;2023-05-10T00:43:26;35.63;34.71;42.29;;
69619;Laerm;57653;51.434;5.984;2023-05-10T00:43:37;35.49;34.28;39.95;;
69619;Laerm;57653;51.434;5.984;2023-05-10T00:43:47;35.51;34.52;39.24;;
69619;Laerm;57653;51.434;5.984;2023-05-10T00:43:58;35.54;34.42;40.68;;
69619;Laerm;57653;51.434;5.984;2023-05-10T00:44:08;35.60;34.46;39.89;;
69619;Laerm;57653;51.434;5.984;2023-05-10T00:44:19;35.56;34.69;39.46;;
69619;Laerm;57653;51.434;5.984;2023-05-10T00:44:29;35.51;34.61;40.82;;
69619;Laerm;57653;51.434;5.984;2023-05-10T00:44:40;35.73;34.76;39.05;;
69619;Laerm;57653;51.434;5.984;2023-05-10T00:44:51;35.62;34.38;39.19;;
69619;Laerm;57653;51.434;5.984;2023-05-10T00:45:01;36.63;34.61;41.23;;
69619;Laerm;57653;51.434;5.984;2023-05-10T00:45:11;60.54;40.65;65.16;;
69619;Laerm;57653;51.434;5.984;2023-05-10T00:45:22;65.89;62.10;73.40;;
69619;Laerm;57653;51.434;5.984;2023-05-10T00:45:32;66.95;57.44;72.28;;
69619;Laerm;57653;51.434;5.984;2023-05-10T00:45:43;51.91;43.21;58.80;;
69619;Laerm;57653;51.434;5.984;2023-05-10T00:45:53;45.21;41.01;49.30;;
69619;Laerm;57653;51.434;5.984;2023-05-10T00:46:04;41.31;38.60;44.02;;
69619;Laerm;57653;51.434;5.984;2023-05-10T00:46:14;39.86;37.88;42.91;;
69619;Laerm;57653;51.434;5.984;2023-05-10T00:46:25;38.55;36.57;41.58;;
69619;Laerm;57653;51.434;5.984;2023-05-10T00:46:36;37.62;36.38;41.91;;
69619;Laerm;57653;51.434;5.984;2023-05-10T00:46:46;36.96;35.14;42.91;;
69619;Laerm;57653;51.434;5.984;2023-05-10T00:46:57;38.29;36.08;41.13;;
69619;Laerm;57653;51.434;5.984;2023-05-10T00:47:07;37.02;35.60;40.30;;
69619;Laerm;57653;51.434;5.984;2023-05-10T00:47:18;36.37;34.97;37.71;;
69619;Laerm;57653;51.434;5.984;2023-05-10T00:47:28;36.39;35.19;39.88;;
69619;Laerm;57653;51.434;5.984;2023-05-10T00:47:39;35.66;34.66;40.83;;
69619;Laerm;57653;51.434;5.984;2023-05-10T00:47:49;35.67;34.64;37.50;;
69619;Laerm;57653;51.434;5.984;2023-05-10T00:48:00;35.56;34.61;39.69;;
69619;Laerm;57653;51.434;5.984;2023-05-10T00:48:12;35.53;34.33;37.10;;
69619;Laerm;57653;51.434;5.984;2023-05-10T00:48:22;35.52;34.55;38.35;;
69619;Laerm;57653;51.434;5.984;2023-05-10T00:48:33;35.46;34.70;36.47;;
69619;Laerm;57653;51.434;5.984;2023-05-10T00:48:44;35.57;34.25;42.07;;
69619;Laerm;57653;51.434;5.984;2023-05-10T00:48:54;35.46;34.55;36.96;;
69619;Laerm;57653;51.434;5.984;2023-05-10T00:49:05;35.49;34.38;38.45;;
69619;Laerm;57653;51.434;5.984;2023-05-10T00:49:16;35.70;34.38;44.62;;
69619;Laerm;57653;51.434;5.984;2023-05-10T00:49:26;35.51;34.47;36.99;;
69619;Laerm;57653;51.434;5.984;2023-05-10T00:49:36;35.43;34.48;38.84;;
69619;Laerm;57653;51.434;5.984;2023-05-10T00:49:47;35.45;34.40;36.79;;
69619;Laerm;57653;51.434;5.984;2023-05-10T00:49:58;35.54;34.53;40.06;;
69619;Laerm;57653;51.434;5.984;2023-05-10T00:50:09;35.43;34.49;36.25;;
69619;Laerm;57653;51.434;5.984;2023-05-10T00:50:19;35.51;34.47;39.59;;
69619;Laerm;57653;51.434;5.984;2023-05-10T00:50:30;35.57;34.50;40.04;;
69619;Laerm;57653;51.434;5.984;2023-05-10T00:50:41;35.49;34.23;39.29;;
69619;Laerm;57653;51.434;5.984;2023-05-10T00:50:51;35.46;34.44;37.49;;
69619;Laerm;57653;51.434;5.984;2023-05-10T00:51:02;35.45;34.67;38.84;;
69619;Laerm;57653;51.434;5.984;2023-05-10T00:51:13;35.67;34.80;38.68;;
69619;Laerm;57653;51.434;5.984;2023-05-10T00:51:23;35.61;34.61;38.69;;
69619;Laerm;57653;51.434;5.984;2023-05-10T00:51:34;39.61;34.68;49.42;;
69619;Laerm;57653;51.434;5.984;2023-05-10T00:51:44;66.57;46.72;71.26;;
69619;Laerm;57653;51.434;5.984;2023-05-10T00:51:55;70.48;67.75;73.08;;
69619;Laerm;57653;51.434;5.984;2023-05-10T00:52:05;66.99;55.78;71.54;;
69619;Laerm;57653;51.434;5.984;2023-05-10T00:52:16;49.64;42.14;56.77;;
69619;Laerm;57653;51.434;5.984;2023-05-10T00:52:26;44.83;42.38;47.22;;
69619;Laerm;57653;51.434;5.984;2023-05-10T00:52:37;42.28;38.74;45.33;;
69619;Laerm;57653;51.434;5.984;2023-05-10T00:52:47;38.70;36.78;40.74;;
69619;Laerm;57653;51.434;5.984;2023-05-10T00:52:59;37.82;36.48;39.64;;
69619;Laerm;57653;51.434;5.984;2023-05-10T00:53:09;37.07;35.73;42.89;;
69619;Laerm;57653;51.434;5.984;2023-05-10T00:53:20;36.54;35.43;38.13;;
69619;Laerm;57653;51.434;5.984;2023-05-10T00:53:31;37.86;35.44;41.34;;
69619;Laerm;57653;51.434;5.984;2023-05-10T00:53:41;36.66;35.25;38.47;;
69619;Laerm;57653;51.434;5.984;2023-05-10T00:53:52;35.88;34.74;37.44;;
69619;Laerm;57653;51.434;5.984;2023-05-10T00:54:03;35.69;34.58;40.37;;
69619;Laerm;57653;51.434;5.984;2023-05-10T00:54:13;35.65;34.70;40.50;;
69619;Laerm;57653;51.434;5.984;2023-05-10T00:54:24;35.54;34.53;39.91;;
69619;Laerm;57653;51.434;5.984;2023-05-10T00:54:34;35.56;34.57;39.69;;
69619;Laerm;57653;51.434;5.984;2023-05-10T00:54:45;35.63;34.73;37.87;;
69619;Laerm;57653;51.434;5.984;2023-05-10T00:54:56;35.57;34.46;40.83;;
69619;Laerm;57653;51.434;5.984;2023-05-10T00:55:07;35.59;34.60;42.11;;
69619;Laerm;57653;51.434;5.984;2023-05-10T00:55:17;35.58;34.71;38.42;;
69619;Laerm;57653;51.434;5.984;2023-05-10T00:55:27;35.60;34.75;37.63;;
69619;Laerm;57653;51.434;5.984;2023-05-10T00:55:38;35.52;34.56;38.00;;
69619;Laerm;57653;51.434;5.984;2023-05-10T00:55:48;35.58;34.50;37.92;;
69619;Laerm;57653;51.434;5.984;2023-05-10T00:55:59;35.52;34.43;36.95;;
69619;Laerm;57653;51.434;5.984;2023-05-10T00:56:09;35.48;34.42;36.35;;
69619;Laerm;57653;51.434;5.984;2023-05-10T00:56:20;35.44;34.62;37.70;;
69619;Laerm;57653;51.434;5.984;2023-05-10T00:56:33;35.75;34.64;40.43;;
69619;Laerm;57653;51.434;5.984;2023-05-10T00:56:43;35.78;34.84;37.65;;
69619;Laerm;57653;51.434;5.984;2023-05-10T00:56:59;35.63;34.47;37.96;;
69619;Laerm;57653;51.434;5.984;2023-05-10T00:57:09;35.93;34.71;42.22;;
69619;Laerm;57653;51.434;5.984;2023-05-10T00:57:19;35.55;34.46;37.14;;
69619;Laerm;57653;51.434;5.984;2023-05-10T00:57:30;35.61;34.76;38.10;;
69619;Laerm;57653;51.434;5.984;2023-05-10T00:57:40;35.49;34.64;38.66;;
69619;Laerm;57653;51.434;5.984;2023-05-10T00:57:51;35.63;34.36;45.88;;
69619;Laerm;57653;51.434;5.984;2023-05-10T00:58:02;35.54;34.59;43.72;;
69619;Laerm;57653;51.434;5.984;2023-05-10T00:58:12;35.75;34.63;39.16;;
69619;Laerm;57653;51.434;5.984;2023-05-10T00:58:22;35.44;34.44;37.02;;
69619;Laerm;57653;51.434;5.984;2023-05-10T00:58:33;35.33;34.37;37.02;;